createdAt,value
2018-07-14T00:00:45.486Z,0
2018-07-14T00:01:46.047Z,0
2018-07-14T00:02:46.616Z,0
2018-07-14T00:03:47.169Z,0
2018-07-14T00:04:47.723Z,0
2018-07-14T00:05:48.277Z,0
2018-07-14T00:06:48.835Z,0
2018-07-14T00:07:49.393Z,0
2018-07-14T00:08:49.950Z,0
2018-07-14T00:09:50.494Z,0
2018-07-14T00:10:51.090Z,0
2018-07-14T00:11:51.607Z,0
2018-07-14T00:12:52.160Z,0
2018-07-14T00:13:52.714Z,0
2018-07-14T00:14:53.268Z,0
2018-07-14T00:15:53.834Z,0
2018-07-14T00:16:54.378Z,0
2018-07-14T00:17:54.932Z,0
2018-07-14T00:18:55.488Z,0
2018-07-14T00:19:56.035Z,0
2018-07-14T00:20:56.590Z,0
2018-07-14T00:21:57.142Z,0
2018-07-14T00:22:57.720Z,0
2018-07-14T00:23:58.253Z,0
2018-07-14T00:24:58.809Z,0
2018-07-14T00:25:59.363Z,0
2018-07-14T00:26:59.921Z,0
2018-07-14T00:28:00.477Z,0
2018-07-14T00:29:01.030Z,0
2018-07-14T00:30:01.590Z,0
2018-07-14T00:31:02.143Z,0
2018-07-14T00:32:02.697Z,0
2018-07-14T00:33:03.253Z,0
2018-07-14T00:34:03.812Z,0
2018-07-14T00:35:04.365Z,0
2018-07-14T00:36:04.918Z,0
2018-07-14T00:37:05.466Z,0
2018-07-14T00:38:06.024Z,0
2018-07-14T00:39:06.580Z,0
2018-07-14T00:40:07.133Z,0
2018-07-14T00:41:07.690Z,0
2018-07-14T00:42:08.244Z,0
2018-07-14T00:43:08.789Z,0
2018-07-14T00:44:09.350Z,0
2018-07-14T00:45:09.900Z,0
2018-07-14T00:46:10.454Z,0
2018-07-14T00:47:11.010Z,0
2018-07-14T00:48:11.564Z,0
2018-07-14T00:49:12.128Z,0
2018-07-14T00:50:12.684Z,0
2018-07-14T00:51:13.235Z,0
2018-07-14T00:52:13.790Z,0
2018-07-14T00:53:14.343Z,0
2018-07-14T00:54:14.893Z,0
2018-07-14T00:55:15.446Z,0
2018-07-14T00:56:16.001Z,0
2018-07-14T00:57:16.554Z,0
2018-07-14T00:58:17.110Z,0
2018-07-14T00:59:17.668Z,0
2018-07-14T01:00:18.222Z,0
2018-07-14T01:01:18.771Z,0
2018-07-14T01:02:19.324Z,0
2018-07-14T01:03:19.878Z,0
2018-07-14T01:04:20.429Z,0
2018-07-14T01:05:20.985Z,0
2018-07-14T01:06:21.541Z,0
2018-07-14T01:07:22.099Z,0
2018-07-14T01:08:22.652Z,0
2018-07-14T01:09:23.205Z,0
2018-07-14T01:10:23.764Z,0
2018-07-14T01:11:24.309Z,0
2018-07-14T01:12:24.864Z,0
2018-07-14T01:13:25.417Z,0
2018-07-14T01:14:25.970Z,0
2018-07-14T01:15:26.519Z,0
2018-07-14T01:16:27.066Z,0
2018-07-14T01:17:27.621Z,0
2018-07-14T01:18:28.175Z,0
2018-07-14T01:19:28.733Z,0
2018-07-14T01:20:29.285Z,0
2018-07-14T01:21:29.836Z,0
2018-07-14T01:22:30.392Z,0
2018-07-14T01:23:30.949Z,0
2018-07-14T01:24:31.498Z,0
2018-07-14T01:25:32.053Z,0
2018-07-14T01:26:32.609Z,0
2018-07-14T01:27:33.156Z,0
2018-07-14T01:28:33.713Z,0
2018-07-14T01:29:34.272Z,0
2018-07-14T01:30:34.826Z,0
2018-07-14T01:31:35.379Z,0
2018-07-14T01:32:35.936Z,0
2018-07-14T01:33:36.488Z,0
2018-07-14T01:34:37.034Z,0
2018-07-14T01:35:37.586Z,0
2018-07-14T01:36:38.139Z,0
2018-07-14T01:37:38.696Z,0
2018-07-14T01:38:39.247Z,0
2018-07-14T01:39:39.803Z,0
2018-07-14T01:40:40.369Z,0
2018-07-14T01:41:40.911Z,0
2018-07-14T01:42:41.461Z,0
2018-07-14T01:43:42.015Z,0
2018-07-14T01:44:42.566Z,0
2018-07-14T01:45:43.113Z,0
2018-07-14T01:46:43.667Z,0
2018-07-14T01:47:44.220Z,0
2018-07-14T01:48:44.774Z,0
2018-07-14T01:49:45.332Z,0
2018-07-14T01:50:45.887Z,0
2018-07-14T01:51:46.445Z,0
2018-07-14T01:52:46.988Z,0
2018-07-14T01:53:47.538Z,0
2018-07-14T01:54:48.092Z,0
2018-07-14T01:55:48.652Z,0
2018-07-14T01:56:49.194Z,0
2018-07-14T01:57:49.747Z,0
2018-07-14T01:58:50.301Z,0
2018-07-14T01:59:50.860Z,0
2018-07-14T02:00:51.411Z,0
2018-07-14T02:01:51.968Z,0
2018-07-14T02:02:52.515Z,0
2018-07-14T02:03:53.068Z,0
2018-07-14T02:04:53.621Z,0
2018-07-14T02:05:54.175Z,0
2018-07-14T02:06:54.730Z,0
2018-07-14T02:07:55.284Z,0
2018-07-14T02:08:55.838Z,0
2018-07-14T02:09:56.386Z,0
2018-07-14T02:10:56.942Z,0
2018-07-14T02:11:57.497Z,0
2018-07-14T02:12:58.048Z,0
2018-07-14T02:13:58.603Z,0
2018-07-14T02:14:59.156Z,0
2018-07-14T02:15:59.712Z,0
2018-07-14T02:17:00.262Z,0
2018-07-14T02:18:00.831Z,0
2018-07-14T02:19:01.375Z,0
2018-07-14T02:20:01.932Z,0
2018-07-14T02:21:02.489Z,0
2018-07-14T02:22:03.044Z,0
2018-07-14T02:23:03.596Z,0
2018-07-14T02:24:04.151Z,0
2018-07-14T02:25:04.707Z,0
2018-07-14T02:26:05.264Z,0
2018-07-14T02:27:05.822Z,0
2018-07-14T02:28:06.369Z,0
2018-07-14T02:29:06.917Z,0
2018-07-14T02:30:07.481Z,0
2018-07-14T02:31:08.026Z,0
2018-07-14T02:32:08.580Z,0
2018-07-14T02:33:09.136Z,0
2018-07-14T02:34:09.691Z,0
2018-07-14T02:35:10.247Z,0
2018-07-14T02:36:10.795Z,0
2018-07-14T02:37:11.400Z,0
2018-07-14T02:38:11.909Z,0
2018-07-14T02:39:12.457Z,0
2018-07-14T02:40:13.014Z,0
2018-07-14T02:41:13.565Z,0
2018-07-14T02:42:14.111Z,0
2018-07-14T02:43:14.667Z,0
2018-07-14T02:44:15.219Z,0
2018-07-14T02:45:15.773Z,0
2018-07-14T02:46:16.328Z,0
2018-07-14T02:47:16.882Z,0
2018-07-14T02:48:17.436Z,0
2018-07-14T02:49:17.989Z,0
2018-07-14T02:50:18.544Z,0
2018-07-14T02:51:19.096Z,0
2018-07-14T02:52:19.654Z,4
2018-07-14T02:53:20.211Z,4
2018-07-14T02:54:20.765Z,4
2018-07-14T02:55:21.309Z,4
2018-07-14T02:56:21.855Z,0
2018-07-14T02:57:22.402Z,4
2018-07-14T02:58:22.955Z,4
2018-07-14T02:59:23.513Z,8
2018-07-14T03:00:24.063Z,4
2018-07-14T03:01:24.616Z,8
2018-07-14T03:02:25.170Z,4
2018-07-14T03:03:25.725Z,8
2018-07-14T03:04:26.280Z,12
2018-07-14T03:05:26.839Z,12
2018-07-14T03:06:27.386Z,12
2018-07-14T03:07:27.945Z,16
2018-07-14T03:08:28.500Z,16
2018-07-14T03:09:29.052Z,24
2018-07-14T03:10:29.610Z,28
2018-07-14T03:11:30.166Z,32
2018-07-14T03:12:30.727Z,32
2018-07-14T03:13:31.272Z,40
2018-07-14T03:14:31.827Z,44
2018-07-14T03:15:32.381Z,52
2018-07-14T03:16:32.937Z,56
2018-07-14T03:17:33.491Z,64
2018-07-14T03:18:34.042Z,72
2018-07-14T03:19:34.653Z,80
2018-07-14T03:20:35.136Z,88
2018-07-14T03:21:35.694Z,100
2018-07-14T03:22:36.249Z,108
2018-07-14T03:23:36.804Z,120
2018-07-14T03:24:37.356Z,132
2018-07-14T03:25:37.910Z,148
2018-07-14T03:26:38.465Z,164
2018-07-14T03:27:39.024Z,180
2018-07-14T03:28:39.577Z,200
2018-07-14T03:29:40.135Z,220
2018-07-14T03:30:40.690Z,236
2018-07-14T03:31:41.244Z,260
2018-07-14T03:32:41.798Z,280
2018-07-14T03:33:42.350Z,304
2018-07-14T03:34:42.900Z,328
2018-07-14T03:35:43.459Z,352
2018-07-14T03:36:44.098Z,380
2018-07-14T03:37:44.568Z,408
2018-07-14T03:38:45.123Z,440
2018-07-14T03:39:45.679Z,468
2018-07-14T03:40:46.231Z,500
2018-07-14T03:41:46.789Z,532
2018-07-14T03:42:47.340Z,572
2018-07-14T03:43:47.895Z,608
2018-07-14T03:44:48.453Z,644
2018-07-14T03:45:49.010Z,684
2018-07-14T03:46:49.558Z,724
2018-07-14T03:47:50.108Z,768
2018-07-14T03:48:50.678Z,816
2018-07-14T03:49:51.222Z,860
2018-07-14T03:50:51.782Z,908
2018-07-14T03:51:52.337Z,956
2018-07-14T03:52:52.897Z,1008
2018-07-14T03:53:53.454Z,1060
2018-07-14T03:54:54.015Z,1116
2018-07-14T03:55:54.573Z,1172
2018-07-14T03:56:55.181Z,1228
2018-07-14T03:57:55.677Z,1288
2018-07-14T03:58:56.241Z,1348
2018-07-14T03:59:56.800Z,1408
2018-07-14T04:00:57.357Z,1476
2018-07-14T04:01:57.911Z,1540
2018-07-14T04:02:58.469Z,1608
2018-07-14T04:03:59.026Z,1676
2018-07-14T04:04:59.577Z,1744
2018-07-14T04:06:00.133Z,1812
2018-07-14T04:07:00.690Z,1884
2018-07-14T04:08:01.246Z,1956
2018-07-14T04:09:01.803Z,2028
2018-07-14T04:10:02.361Z,2104
2018-07-14T04:11:02.918Z,2176
2018-07-14T04:12:03.470Z,2256
2018-07-14T04:13:04.032Z,2328
2018-07-14T04:14:04.592Z,2400
2018-07-14T04:15:05.154Z,2484
2018-07-14T04:16:05.703Z,2584
2018-07-14T04:17:06.263Z,2680
2018-07-14T04:18:06.832Z,2772
2018-07-14T04:19:07.376Z,2864
2018-07-14T04:20:07.929Z,2956
2018-07-14T04:21:08.491Z,3052
2018-07-14T04:22:09.045Z,3148
2018-07-14T04:23:09.602Z,3244
2018-07-14T04:24:10.158Z,3340
2018-07-14T04:25:10.718Z,3436
2018-07-14T04:26:11.268Z,3532
2018-07-14T04:27:11.829Z,3620
2018-07-14T04:28:12.389Z,3716
2018-07-14T04:29:12.950Z,3812
2018-07-14T04:30:13.515Z,3908
2018-07-14T04:31:14.066Z,4008
2018-07-14T04:32:14.628Z,4112
2018-07-14T04:33:15.186Z,4216
2018-07-14T04:34:15.745Z,4320
2018-07-14T04:35:16.309Z,4424
2018-07-14T04:36:16.865Z,4520
2018-07-14T04:37:17.428Z,4616
2018-07-14T04:38:17.989Z,4704
2018-07-14T04:39:18.546Z,4796
2018-07-14T04:40:19.107Z,4888
2018-07-14T04:41:19.669Z,4976
2018-07-14T04:42:20.297Z,5076
2018-07-14T04:43:20.780Z,5172
2018-07-14T04:44:21.338Z,5264
2018-07-14T04:45:21.887Z,5364
2018-07-14T04:46:22.443Z,5460
2018-07-14T04:47:23.003Z,5560
2018-07-14T04:48:23.565Z,5660
2018-07-14T04:49:24.135Z,5756
2018-07-14T04:50:24.687Z,5864
2018-07-14T04:51:25.247Z,5968
2018-07-14T04:52:25.810Z,6076
2018-07-14T04:53:26.366Z,6184
2018-07-14T04:54:26.924Z,6328
2018-07-14T04:55:27.482Z,6848
2018-07-14T04:56:28.038Z,7544
2018-07-14T04:57:28.598Z,7936
2018-07-14T04:58:29.152Z,8100
2018-07-14T04:59:29.713Z,8260
2018-07-14T05:00:30.274Z,8424
2018-07-14T05:01:30.838Z,8548
2018-07-14T05:02:31.400Z,8356
2018-07-14T05:03:31.964Z,7764
2018-07-14T05:04:32.530Z,7392
2018-07-14T05:05:33.087Z,7908
2018-07-14T05:06:33.725Z,8628
2018-07-14T05:07:34.209Z,9152
2018-07-14T05:08:34.771Z,9404
2018-07-14T05:09:35.338Z,9580
2018-07-14T05:10:35.897Z,9776
2018-07-14T05:11:36.460Z,9964
2018-07-14T05:12:37.017Z,10168
2018-07-14T05:13:37.588Z,10388
2018-07-14T05:14:38.149Z,10636
2018-07-14T05:15:38.716Z,10904
2018-07-14T05:16:39.275Z,11112
2018-07-14T05:17:39.840Z,11304
2018-07-14T05:18:40.409Z,11492
2018-07-14T05:19:40.972Z,11644
2018-07-14T05:20:41.543Z,11020
2018-07-14T05:21:42.110Z,10372
2018-07-14T05:22:42.676Z,10140
2018-07-14T05:23:43.241Z,9608
2018-07-14T05:24:43.812Z,9828
2018-07-14T05:25:44.382Z,11192
2018-07-14T05:26:44.946Z,12528
2018-07-14T05:27:45.567Z,12972
2018-07-14T05:28:46.078Z,13192
2018-07-14T05:29:46.646Z,13364
2018-07-14T05:30:47.215Z,13548
2018-07-14T05:31:47.784Z,13712
2018-07-14T05:32:48.349Z,13884
2018-07-14T05:33:48.913Z,14056
2018-07-14T05:34:49.528Z,14264
2018-07-14T05:35:50.097Z,14028
2018-07-14T05:36:50.622Z,12528
2018-07-14T05:37:51.190Z,11024
2018-07-14T05:38:51.753Z,11532
2018-07-14T05:39:52.327Z,13388
2018-07-14T05:40:52.892Z,14936
2018-07-14T05:41:53.475Z,15276
2018-07-14T05:42:54.033Z,15384
2018-07-14T05:43:54.623Z,15556
2018-07-14T05:44:55.174Z,15872
2018-07-14T05:45:55.745Z,16276
2018-07-14T05:46:56.317Z,16608
2018-07-14T05:47:56.885Z,16780
2018-07-14T05:48:57.454Z,16872
2018-07-14T05:49:58.026Z,16804
2018-07-14T05:50:58.598Z,16948
2018-07-14T05:51:59.195Z,17536
2018-07-14T05:52:59.748Z,18016
2018-07-14T05:54:00.322Z,18432
2018-07-14T05:55:00.885Z,18912
2018-07-14T05:56:01.456Z,19104
2018-07-14T05:57:02.032Z,19264
2018-07-14T05:58:02.603Z,19520
2018-07-14T05:59:03.175Z,19840
2018-07-14T06:00:03.750Z,20192
2018-07-14T06:01:04.310Z,20416
2018-07-14T06:02:04.907Z,20576
2018-07-14T06:03:05.464Z,20736
2018-07-14T06:04:06.042Z,20992
2018-07-14T06:05:06.623Z,21376
2018-07-14T06:06:07.197Z,21792
2018-07-14T06:07:07.763Z,22048
2018-07-14T06:08:08.339Z,22112
2018-07-14T06:09:08.913Z,22048
2018-07-14T06:10:09.490Z,22304
2018-07-14T06:11:10.061Z,22496
2018-07-14T06:12:10.632Z,22848
2018-07-14T06:13:11.208Z,23200
2018-07-14T06:14:11.833Z,23776
2018-07-14T06:15:12.382Z,24224
2018-07-14T06:16:12.944Z,24608
2018-07-14T06:17:13.575Z,24864
2018-07-14T06:18:14.101Z,24992
2018-07-14T06:19:14.673Z,24768
2018-07-14T06:20:15.260Z,21408
2018-07-14T06:21:15.831Z,17400
2018-07-14T06:22:16.406Z,19808
2018-07-14T06:23:16.972Z,25056
2018-07-14T06:24:17.544Z,22304
2018-07-14T06:25:18.121Z,26560
2018-07-14T06:26:18.717Z,28000
2018-07-14T06:27:19.279Z,27904
2018-07-14T06:28:19.845Z,27488
2018-07-14T06:29:20.423Z,27680
2018-07-14T06:30:20.997Z,28032
2018-07-14T06:31:21.569Z,28640
2018-07-14T06:32:22.150Z,29152
2018-07-14T06:33:22.712Z,29280
2018-07-14T06:34:23.288Z,29312
2018-07-14T06:35:23.862Z,29696
2018-07-14T06:36:24.439Z,30176
2018-07-14T06:37:25.019Z,30720
2018-07-14T06:38:25.716Z,31200
2018-07-14T06:39:26.163Z,31488
2018-07-14T06:40:26.738Z,31904
2018-07-14T06:41:27.315Z,31648
2018-07-14T06:42:27.889Z,31680
2018-07-14T06:43:28.454Z,31680
2018-07-14T06:44:29.072Z,32000
2018-07-14T06:45:29.617Z,32416
2018-07-14T06:46:30.192Z,33120
2018-07-14T06:47:30.767Z,33856
2018-07-14T06:48:31.343Z,34592
2018-07-14T06:49:31.919Z,34912
2018-07-14T06:50:32.495Z,34912
2018-07-14T06:51:33.066Z,34656
2018-07-14T06:52:33.638Z,34848
2018-07-14T06:53:34.215Z,35040
2018-07-14T06:54:34.796Z,35616
2018-07-14T06:55:35.369Z,36512
2018-07-14T06:56:35.949Z,36992
2018-07-14T06:57:36.520Z,36800
2018-07-14T06:58:37.102Z,37152
2018-07-14T06:59:37.675Z,37504
2018-07-14T07:00:38.247Z,37792
2018-07-14T07:01:38.824Z,38304
2018-07-14T07:02:39.407Z,38592
2018-07-14T07:03:39.982Z,38464
2018-07-14T07:04:40.561Z,38336
2018-07-14T07:05:41.134Z,38464
2018-07-14T07:06:41.712Z,38432
2018-07-14T07:07:42.291Z,39040
2018-07-14T07:08:42.871Z,40192
2018-07-14T07:09:43.437Z,40672
2018-07-14T07:10:44.015Z,40800
2018-07-14T07:11:44.586Z,41120
2018-07-14T07:12:45.172Z,41568
2018-07-14T07:13:45.788Z,41312
2018-07-14T07:14:46.323Z,41568
2018-07-14T07:15:46.896Z,41984
2018-07-14T07:16:47.476Z,42208
2018-07-14T07:17:48.054Z,42528
2018-07-14T07:18:48.636Z,42752
2018-07-14T07:19:49.214Z,43232
2018-07-14T07:20:49.789Z,43680
2018-07-14T07:21:50.369Z,44960
2018-07-14T07:22:50.942Z,45344
2018-07-14T07:23:51.512Z,45088
2018-07-14T07:24:52.092Z,44672
2018-07-14T07:25:52.670Z,45536
2018-07-14T07:26:53.246Z,46784
2018-07-14T07:27:53.835Z,47616
2018-07-14T07:28:54.557Z,48352
2018-07-14T07:29:54.978Z,48544
2018-07-14T07:30:55.550Z,48192
2018-07-14T07:31:56.119Z,48032
2018-07-14T07:32:56.699Z,47776
2018-07-14T07:33:57.282Z,48320
2018-07-14T07:34:57.876Z,48992
2018-07-14T07:35:58.431Z,48480
2018-07-14T07:36:59.014Z,48192
2018-07-14T07:37:59.587Z,48320
2018-07-14T07:39:00.168Z,48704
2018-07-14T07:40:00.742Z,49856
2018-07-14T07:41:01.321Z,51584
2018-07-14T07:42:01.893Z,53120
2018-07-14T07:43:02.477Z,53920
2018-07-14T07:44:03.050Z,35872
2018-07-14T07:45:03.630Z,54016
2018-07-14T07:46:04.202Z,54016
2018-07-14T07:47:04.777Z,53792
2018-07-14T07:48:05.353Z,53952
2018-07-14T07:49:05.938Z,52992
2018-07-14T07:50:06.515Z,54240
2018-07-14T07:51:07.091Z,54432
2018-07-14T07:52:07.671Z,54656
2018-07-14T07:53:08.241Z,54944
2018-07-14T07:54:08.814Z,55072
2018-07-14T07:55:09.396Z,56224
2018-07-14T07:56:09.971Z,42208
2018-07-14T07:57:10.544Z,57376
2018-07-14T07:58:11.126Z,58592
2018-07-14T07:59:11.702Z,58944
2018-07-14T08:00:12.280Z,59168
2018-07-14T08:01:12.856Z,59360
2018-07-14T08:02:13.433Z,59360
2018-07-14T08:03:14.006Z,59488
2018-07-14T08:04:14.581Z,60064
2018-07-14T08:05:15.166Z,60448
2018-07-14T08:06:15.737Z,61088
2018-07-14T08:07:16.315Z,59584
2018-07-14T08:08:16.896Z,61536
2018-07-14T08:09:17.471Z,61792
2018-07-14T08:10:18.081Z,61248
2018-07-14T08:11:18.625Z,61536
2018-07-14T08:12:19.196Z,62816
2018-07-14T08:13:19.773Z,63424
2018-07-14T08:14:20.350Z,65408
2018-07-14T08:15:20.923Z,66240
2018-07-14T08:16:21.498Z,65888
2018-07-14T08:17:22.068Z,66112
2018-07-14T08:18:22.643Z,66720
2018-07-14T08:19:23.222Z,67488
2018-07-14T08:20:23.802Z,67648
2018-07-14T08:21:24.378Z,66400
2018-07-14T08:22:24.960Z,65792
2018-07-14T08:23:25.546Z,66368
2018-07-14T08:24:26.123Z,66880
2018-07-14T08:25:26.697Z,67424
2018-07-14T08:26:27.276Z,68448
2018-07-14T08:27:27.852Z,68224
2018-07-14T08:28:28.424Z,67648
2018-07-14T08:29:28.993Z,67520
2018-07-14T08:30:29.562Z,67840
2018-07-14T08:31:30.141Z,69568
2018-07-14T08:32:30.777Z,70976
2018-07-14T08:33:31.288Z,72064
2018-07-14T08:34:31.861Z,72000
2018-07-14T08:35:32.429Z,71104
2018-07-14T08:36:33.010Z,68608
2018-07-14T08:37:33.592Z,67584
2018-07-14T08:38:34.169Z,68032
2018-07-14T08:39:34.753Z,70208
2018-07-14T08:40:35.329Z,72512
2018-07-14T08:41:35.917Z,71168
2018-07-14T08:42:36.480Z,69280
2018-07-14T08:43:37.113Z,66688
2018-07-14T08:44:37.634Z,67584
2018-07-14T08:45:38.211Z,71232
2018-07-14T08:46:38.791Z,75264
2018-07-14T08:47:39.362Z,77088
2018-07-14T08:48:39.941Z,76672
2018-07-14T08:49:40.520Z,75168
2018-07-14T08:50:41.094Z,73888
2018-07-14T08:51:41.672Z,73120
2018-07-14T08:52:42.249Z,73952
2018-07-14T08:53:42.820Z,75456
2018-07-14T08:54:43.396Z,76832
2018-07-14T08:55:43.979Z,75744
2018-07-14T08:56:44.584Z,73760
2018-07-14T08:57:45.183Z,72000
2018-07-14T08:58:45.746Z,71808
2018-07-14T08:59:46.324Z,73344
2018-07-14T09:00:46.899Z,75104
2018-07-14T09:01:47.476Z,77568
2018-07-14T09:02:48.057Z,78240
2018-07-14T09:03:48.637Z,77472
2018-07-14T09:04:49.213Z,77792
2018-07-14T09:05:49.790Z,78400
2018-07-14T09:06:50.364Z,78432
2018-07-14T09:07:50.943Z,77280
2018-07-14T09:08:51.513Z,76096
2018-07-14T09:09:52.093Z,74720
2018-07-14T09:10:52.668Z,73632
2018-07-14T09:11:53.247Z,75424
2018-07-14T09:12:53.831Z,78336
2018-07-14T09:13:54.479Z,80960
2018-07-14T09:14:55.024Z,80832
2018-07-14T09:15:55.599Z,79104
2018-07-14T09:16:56.179Z,79648
2018-07-14T09:17:56.759Z,80160
2018-07-14T09:18:57.340Z,80832
2018-07-14T09:19:57.921Z,82400
2018-07-14T09:20:58.496Z,84480
2018-07-14T09:21:59.078Z,85600
2018-07-14T09:22:59.659Z,84960
2018-07-14T09:24:00.249Z,83936
2018-07-14T09:25:00.829Z,83968
2018-07-14T09:26:01.468Z,84544
2018-07-14T09:27:01.990Z,84480
2018-07-14T09:28:02.564Z,84000
2018-07-14T09:29:03.141Z,85504
2018-07-14T09:30:03.710Z,86208
2018-07-14T09:31:04.307Z,86080
2018-07-14T09:32:04.889Z,84640
2018-07-14T09:33:05.458Z,84384
2018-07-14T09:34:06.030Z,85664
2018-07-14T09:35:06.602Z,85312
2018-07-14T09:36:07.168Z,83136
2018-07-14T09:37:07.806Z,81408
2018-07-14T09:38:08.391Z,81632
2018-07-14T09:39:08.973Z,83744
2018-07-14T09:40:09.534Z,86304
2018-07-14T09:41:10.113Z,88192
2018-07-14T09:42:10.696Z,87392
2018-07-14T09:43:11.265Z,85312
2018-07-14T09:44:11.830Z,81312
2018-07-14T09:45:12.421Z,77344
2018-07-14T09:46:12.996Z,76672
2018-07-14T09:47:13.577Z,79136
2018-07-14T09:48:14.159Z,82880
2018-07-14T09:49:14.739Z,86048
2018-07-14T09:50:15.320Z,88640
2018-07-14T09:51:15.908Z,87392
2018-07-14T09:52:16.480Z,83520
2018-07-14T09:53:17.067Z,78656
2018-07-14T09:54:17.641Z,77184
2018-07-14T09:55:18.306Z,77344
2018-07-14T09:56:18.803Z,80032
2018-07-14T09:57:19.384Z,85280
2018-07-14T09:58:19.975Z,91616
2018-07-14T09:59:20.533Z,96352
2018-07-14T10:00:21.101Z,96768
2018-07-14T10:01:21.678Z,93920
2018-07-14T10:02:22.255Z,91136
2018-07-14T10:03:22.895Z,89312
2018-07-14T10:04:23.404Z,87040
2018-07-14T10:05:23.988Z,88256
2018-07-14T10:06:24.575Z,90368
2018-07-14T10:07:25.178Z,91264
2018-07-14T10:08:25.753Z,92320
2018-07-14T10:09:27.314Z,92512
2018-07-14T10:10:27.906Z,91136
2018-07-14T10:11:28.492Z,90080
2018-07-14T10:13:44.533Z,92960
2018-07-14T10:14:45.120Z,96256
2018-07-14T10:15:45.674Z,97056
2018-07-14T10:16:46.251Z,98272
2018-07-14T10:17:46.860Z,96320
2018-07-14T10:18:47.405Z,95072
2018-07-14T10:19:47.983Z,94880
2018-07-14T10:20:48.561Z,93312
2018-07-14T10:21:49.175Z,92928
2018-07-14T10:22:49.739Z,93504
2018-07-14T10:23:50.311Z,95968
2018-07-14T10:24:50.885Z,98848
2018-07-14T10:25:51.701Z,100992
2018-07-14T10:26:52.043Z,100160
2018-07-14T10:27:52.666Z,99104
2018-07-14T10:28:53.231Z,94432
2018-07-14T10:29:53.803Z,92096
2018-07-14T10:30:54.431Z,92864
2018-07-14T10:31:55.028Z,95744
2018-07-14T10:32:55.594Z,98784
2018-07-14T10:33:56.223Z,98816
2018-07-14T10:34:56.746Z,97728
2018-07-14T10:35:57.368Z,95808
2018-07-14T10:36:57.947Z,94880
2018-07-14T10:37:58.529Z,95808
2018-07-14T10:38:59.115Z,95328
2018-07-14T10:39:59.694Z,96160
2018-07-14T10:41:00.268Z,98528
2018-07-14T10:42:00.921Z,100448
2018-07-14T10:43:01.434Z,100288
2018-07-14T10:44:02.000Z,101024
2018-07-14T10:45:02.585Z,100384
2018-07-14T10:46:03.161Z,100800
2018-07-14T10:47:03.736Z,100576
2018-07-14T10:48:04.311Z,102368
2018-07-14T10:49:04.902Z,102144
2018-07-14T10:50:05.487Z,100960
2018-07-14T10:51:06.063Z,98624
2018-07-14T10:52:06.641Z,97536
2018-07-14T10:53:07.211Z,96640
2018-07-14T10:54:07.791Z,97248
2018-07-14T10:55:08.402Z,100000
2018-07-14T10:56:08.977Z,103424
2018-07-14T10:57:09.547Z,106624
2018-07-14T10:58:10.193Z,106016
2018-07-14T10:59:10.690Z,104128
2018-07-14T11:00:11.277Z,104192
2018-07-14T11:01:11.878Z,103936
2018-07-14T11:02:12.442Z,105056
2018-07-14T11:03:13.044Z,107168
2018-07-14T11:04:13.598Z,110336
2018-07-14T11:05:14.169Z,112832
2018-07-14T11:06:14.757Z,112032
2018-07-14T11:07:15.356Z,110144
2018-07-14T11:08:15.933Z,107136
2018-07-14T11:09:16.529Z,102624
2018-07-14T11:10:17.106Z,99872
2018-07-14T11:11:17.688Z,99040
2018-07-14T11:12:18.268Z,101120
2018-07-14T11:13:18.844Z,102848
2018-07-14T11:14:19.419Z,103040
2018-07-14T11:15:20.002Z,102944
2018-07-14T11:16:20.578Z,100960
2018-07-14T11:17:21.174Z,101024
2018-07-14T11:18:21.754Z,101088
2018-07-14T11:19:22.335Z,103872
2018-07-14T11:20:22.983Z,105920
2018-07-14T11:21:23.527Z,91136
2018-07-14T11:22:24.105Z,106144
2018-07-14T11:23:24.916Z,106944
2018-07-14T11:24:25.493Z,107584
2018-07-14T11:25:26.080Z,105056
2018-07-14T11:26:26.650Z,102176
2018-07-14T11:27:27.219Z,100704
2018-07-14T11:28:27.789Z,100096
2018-07-14T11:29:28.395Z,101760
2018-07-14T11:30:28.997Z,104224
2018-07-14T11:31:29.646Z,106304
2018-07-14T11:32:30.220Z,106624
2018-07-14T11:33:30.797Z,107808
2018-07-14T11:34:31.399Z,102016
2018-07-14T11:35:32.010Z,97952
2018-07-14T11:36:32.575Z,95104
2018-07-14T11:37:33.178Z,97024
2018-07-14T11:38:33.734Z,101216
2018-07-14T11:39:34.307Z,105504
2018-07-14T11:40:34.884Z,106688
2018-07-14T11:41:35.493Z,107456
2018-07-14T11:42:36.084Z,105536
2018-07-14T11:43:36.664Z,101792
2018-07-14T11:44:37.240Z,98272
2018-07-14T11:45:37.813Z,101056
2018-07-14T11:46:38.390Z,100448
2018-07-14T11:47:39.124Z,103712
2018-07-14T11:48:39.729Z,101312
2018-07-14T11:49:40.346Z,101184
2018-07-14T11:50:40.926Z,102848
2018-07-14T11:51:41.507Z,98560
2018-07-14T11:52:42.088Z,97536
2018-07-14T11:53:42.666Z,95424
2018-07-14T11:54:43.256Z,95520
2018-07-14T11:55:43.839Z,97152
2018-07-14T11:56:44.437Z,98400
2018-07-14T11:57:45.012Z,103712
2018-07-14T11:58:45.600Z,108384
2018-07-14T11:59:46.186Z,107936
2018-07-14T12:00:46.786Z,107008
2018-07-14T12:02:31.521Z,102240
2018-07-14T12:03:32.129Z,31520
2018-07-14T12:04:32.737Z,31328
2018-07-14T12:05:33.381Z,100480
2018-07-14T12:06:33.979Z,79200
2018-07-14T12:07:34.550Z,90336
2018-07-14T12:08:35.156Z,96032
2018-07-14T12:09:35.764Z,98272
2018-07-14T12:10:36.350Z,100960
2018-07-14T12:11:36.930Z,102432
2018-07-14T12:12:37.508Z,99296
2018-07-14T12:13:38.089Z,96512
2018-07-14T12:14:38.662Z,94400
2018-07-14T12:15:39.249Z,97504
2018-07-14T12:16:39.822Z,41856
2018-07-14T12:17:40.406Z,46432
2018-07-14T12:18:40.985Z,99200
2018-07-14T12:19:41.559Z,33408
2018-07-14T12:20:42.140Z,31200
2018-07-14T12:21:42.718Z,32640
2018-07-14T12:22:43.293Z,32000
2018-07-14T12:23:43.868Z,95136
2018-07-14T12:24:44.448Z,99008
2018-07-14T12:25:45.025Z,37408
2018-07-14T12:26:45.677Z,113888
2018-07-14T12:27:46.166Z,111104
2018-07-14T12:28:46.764Z,78880
2018-07-14T12:29:47.318Z,102752
2018-07-14T12:30:47.889Z,100800
2018-07-14T12:31:48.467Z,104800
2018-07-14T12:32:49.046Z,109376
2018-07-14T12:33:49.629Z,111168
2018-07-14T12:34:50.204Z,111040
2018-07-14T12:35:50.784Z,108896
2018-07-14T12:36:51.361Z,93664
2018-07-14T12:37:51.943Z,88896
2018-07-14T12:38:52.512Z,107648
2018-07-14T12:39:53.084Z,109440
2018-07-14T12:40:53.664Z,109088
2018-07-14T12:41:54.231Z,107648
2018-07-14T12:42:54.811Z,104256
2018-07-14T12:43:55.386Z,99584
2018-07-14T12:44:55.963Z,88096
2018-07-14T12:45:56.538Z,28960
2018-07-14T12:46:57.114Z,25440
2018-07-14T12:47:57.693Z,23456
2018-07-14T12:48:58.267Z,21760
2018-07-14T12:49:58.839Z,20892
2018-07-14T12:50:59.408Z,22464
2018-07-14T12:51:59.983Z,24192
2018-07-14T12:53:00.561Z,97504
2018-07-14T12:54:01.139Z,93120
2018-07-14T12:55:01.708Z,88160
2018-07-14T12:56:02.288Z,88992
2018-07-14T12:57:02.862Z,88576
2018-07-14T12:58:03.432Z,93856
2018-07-14T12:59:04.007Z,101056
2018-07-14T13:00:04.606Z,104544
2018-07-14T13:01:05.163Z,104704
2018-07-14T13:02:05.743Z,102048
2018-07-14T13:03:06.317Z,101696
2018-07-14T13:04:06.895Z,99552
2018-07-14T13:05:07.467Z,100032
2018-07-14T13:06:08.047Z,102240
2018-07-14T13:07:08.623Z,102560
2018-07-14T13:08:09.196Z,101824
2018-07-14T13:09:09.772Z,102176
2018-07-14T13:10:10.350Z,101472
2018-07-14T13:11:10.929Z,102144
2018-07-14T13:12:11.505Z,101408
2018-07-14T13:13:12.117Z,98272
2018-07-14T13:14:12.671Z,89024
2018-07-14T13:15:13.247Z,81696
2018-07-14T13:16:13.824Z,98976
2018-07-14T13:17:14.421Z,98688
2018-07-14T13:18:14.969Z,25472
2018-07-14T13:19:15.548Z,91456
2018-07-14T13:20:16.125Z,98944
2018-07-14T13:21:16.704Z,97728
2018-07-14T13:22:17.284Z,100608
2018-07-14T13:23:17.863Z,103008
2018-07-14T13:24:18.439Z,103104
2018-07-14T13:25:19.013Z,101632
2018-07-14T13:26:19.589Z,95904
2018-07-14T13:27:20.169Z,89408
2018-07-14T13:28:20.748Z,86560
2018-07-14T13:29:21.326Z,84576